Time;durP1;ratioP1;P1;durP2;ratioP2;P2;SDS_P1;SDS_P2;PMS_P1;PMS_P2;Temp;Humidity;BMP_temperature;BMP_pressure;BME280_temperature;BME280_humidity;BME280_pressure;Samples;Min_cycle;Max_cycle;Signal;HPM_P1;HPM_P2
2022/10/27 00:01:04;;;;;;;7.88;3.78;;;;;;;;;;5062643;28;20045;-75
2022/10/27 00:03:55;;;;;;;7.25;3.38;;;;;;;;;;5063868;28;20076;-76
2022/10/27 00:06:22;;;;;;;7.20;4.00;;;;;;;;;;5063771;28;20144;-80
2022/10/27 00:09:09;;;;;;;11.98;4.30;;;;;;;;;;5065264;28;20464;-75
2022/10/27 00:11:51;;;;;;;8.77;4.07;;;;;;;;;;5050742;28;20056;-76
2022/10/27 00:17:42;;;;;;;10.55;3.90;;;;;;;;;;5054650;28;20148;-76
2022/10/27 00:20:09;;;;;;;12.73;4.55;;;;;;;;;;5055135;28;20103;-77
2022/10/27 00:22:40;;;;;;;18.80;4.50;;;;;;;;;;5058814;28;20734;-75
2022/10/27 00:25:10;;;;;;;;;;;;;;;;;;5060496;28;20076;-75
2022/10/27 00:27:48;;;;;;;8.32;3.47;;;;;;;;;;5052734;28;43475;-76
2022/10/27 00:30:19;;;;;;;10.82;3.63;;;;;;;;;;5070512;28;20076;-76
2022/10/27 00:33:00;;;;;;;14.20;4.10;;;;;;;;;;5081858;28;20041;-79
2022/10/27 00:35:44;;;;;;;7.97;3.88;;;;;;;;;;5066119;28;20131;-76
2022/10/27 00:38:31;;;;;;;12.63;4.68;;;;;;;;;;5085439;28;20049;-79
2022/10/27 00:41:02;;;;;;;11.30;3.95;;;;;;;;;;5068893;28;20042;-77
2022/10/27 00:43:42;;;;;;;8.63;3.80;;;;;;;;;;5061315;28;20129;-76
2022/10/27 00:46:36;;;;;;;5.82;3.50;;;;;;;;;;5068032;28;20060;-76
2022/10/27 00:49:15;;;;;;;10.05;3.38;;;;;;;;;;5068697;28;20037;-77
2022/10/27 00:52:14;;;;;;;13.73;4.13;;;;;;;;;;5078381;28;20037;-77
2022/10/27 00:54:51;;;;;;;16.88;3.95;;;;;;;;;;5081672;28;20068;-76
2022/10/27 01:00:17;;;;;;;9.30;3.92;;;;;;;;;;5066205;28;20033;-76
2022/10/27 01:02:50;;;;;;;8.13;4.15;;;;;;;;;;5057084;28;20107;-75
2022/10/27 01:05:37;;;;;;;10.00;4.47;;;;;;;;;;5046192;28;20111;-80
2022/10/27 01:08:24;;;;;;;18.23;4.57;;;;;;;;;;5074472;28;20118;-75
2022/10/27 01:11:17;;;;;;;9.43;3.95;;;;;;;;;;5075594;28;20087;-75
2022/10/27 01:13:53;;;;;;;11.27;5.03;;;;;;;;;;5070854;28;20049;-76
2022/10/27 01:16:33;;;;;;;16.30;5.28;;;;;;;;;;5067990;28;20084;-76
2022/10/27 01:19:20;;;;;;;11.45;4.30;;;;;;;;;;5071484;28;20072;-76
2022/10/27 01:25:29;;;;;;;;;;;;;;;;;;;;;
2022/10/27 01:28:20;;;;;;;15.75;5.15;;;;;;;;;;4998831;28;20105;-77
2022/10/27 01:31:04;;;;;;;13.40;4.23;;;;;;;;;;5008914;28;20051;-76
2022/10/27 01:34:03;;;;;;;11.82;4.68;;;;;;;;;;5003775;28;20529;-76
2022/10/27 01:36:41;;;;;;;9.27;4.03;;;;;;;;;;5007158;28;20038;-75
2022/10/27 01:39:17;;;;;;;13.30;4.28;;;;;;;;;;5012492;28;20125;-76
2022/10/27 01:42:14;;;;;;;12.52;4.85;;;;;;;;;;5006517;28;20943;-76
2022/10/27 01:44:55;;;;;;;10.27;4.38;;;;;;;;;;5012584;28;20038;-75
2022/10/27 01:47:43;;;;;;;11.63;4.80;;;;;;;;;;4995810;28;20043;-76
2022/10/27 01:50:56;;;;;;;11.52;4.38;;;;;;;;;;5010353;28;20145;-76
2022/10/27 01:53:30;;;;;;;8.32;4.25;;;;;;;;;;5021765;28;20065;-78
2022/10/27 01:56:30;;;;;;;9.48;4.68;;;;;;;;;;5024290;28;20033;-76
2022/10/27 01:59:30;;;;;;;13.35;5.07;;;;;;;;;;5014721;28;20047;-76
2022/10/27 02:02:14;;;;;;;11.48;4.63;;;;;;;;;;5027401;28;20025;-76
2022/10/27 02:05:28;;;;;;;9.07;4.72;;;;;;;;;;5075279;28;20049;-76
2022/10/27 02:08:07;;;;;;;15.68;4.32;;;;;;;;;;5082265;28;20045;-76
2022/10/27 02:10:57;;;;;;;15.40;4.47;;;;;;;;;;5065536;28;20037;-76
2022/10/27 02:13:32;;;;;;;8.52;4.47;;;;;;;;;;5082429;28;20072;-76
2022/10/27 02:19:35;;;;;;;9.50;4.95;;;;;;;;;;5057796;28;20045;-77
2022/10/27 02:22:27;;;;;;;15.60;4.45;;;;;;;;;;5069677;28;20049;-76
2022/10/27 02:25:12;;;;;;;8.50;4.40;;;;;;;;;;5061475;28;20459;-76
2022/10/27 02:27:59;;;;;;;9.10;4.93;;;;;;;;;;5063756;28;20049;-78
2022/10/27 02:30:31;;;;;;;11.00;4.93;;;;;;;;;;5058334;28;20118;-77
2022/10/27 02:33:10;;;;;;;10.35;5.13;;;;;;;;;;5052668;28;20641;-76
2022/10/27 02:35:51;;;;;;;9.52;5.07;;;;;;;;;;5059734;28;20046;-77
2022/10/27 02:38:20;;;;;;;10.77;4.82;;;;;;;;;;5053592;28;20053;-77
2022/10/27 02:41:13;;;;;;;12.05;4.53;;;;;;;;;;5055021;28;20428;-77
2022/10/27 02:43:52;;;;;;;8.30;4.38;;;;;;;;;;5059280;28;20105;-77
2022/10/27 02:46:30;;;;;;;12.63;4.30;;;;;;;;;;5052764;28;20041;-77
2022/10/27 02:49:04;;;;;;;8.48;4.10;;;;;;;;;;5063113;28;20042;-75
2022/10/27 02:51:34;;;;;;;7.40;4.00;;;;;;;;;;5053463;28;20088;-76
2022/10/27 02:54:24;;;;;;;7.07;3.80;;;;;;;;;;5050965;28;20781;-76
2022/10/27 02:57:08;;;;;;;10.48;3.88;;;;;;;;;;5041833;28;20326;-76
2022/10/27 02:59:50;;;;;;;12.77;3.88;;;;;;;;;;4985994;28;20234;-76
2022/10/27 03:02:24;;;;;;;11.68;4.25;;;;;;;;;;4999467;28;20039;-77
2022/10/27 03:05:42;;;;;;;9.68;3.80;;;;;;;;;;4990139;28;20975;-76
2022/10/27 03:08:29;;;;;;;8.00;4.47;;;;;;;;;;5003637;28;20053;-76
2022/10/27 03:11:20;;;;;;;8.32;4.18;;;;;;;;;;4988954;28;20061;-78
2022/10/27 03:14:02;;;;;;;10.43;3.45;;;;;;;;;;4993591;28;20050;-76
2022/10/27 03:16:45;;;;;;;11.07;3.90;;;;;;;;;;4986807;28;20157;-77
2022/10/27 03:20:03;;;;;;;16.10;3.92;;;;;;;;;;4981538;28;20054;-76
2022/10/27 03:22:52;;;;;;;11.52;3.30;;;;;;;;;;4997890;28;20050;-76
2022/10/27 03:25:59;;;;;;;13.43;3.97;;;;;;;;;;5058133;28;20039;-76
2022/10/27 03:28:20;;;;;;;5.88;3.22;;;;;;;;;;5050680;28;20041;-76
2022/10/27 03:30:54;;;;;;;13.07;3.63;;;;;;;;;;5055531;28;20049;-76
2022/10/27 03:33:41;;;;;;;11.23;3.80;;;;;;;;;;5072229;28;20050;-77
2022/10/27 03:36:24;;;;;;;9.90;3.30;;;;;;;;;;5076741;28;20049;-76
2022/10/27 03:38:57;;;;;;;10.55;4.07;;;;;;;;;;5080133;28;20101;-76
2022/10/27 03:41:39;;;;;;;8.75;3.88;;;;;;;;;;5066634;28;20056;-75
2022/10/27 03:44:20;;;;;;;9.80;4.15;;;;;;;;;;5064828;28;20053;-75
2022/10/27 03:46:56;;;;;;;8.88;3.35;;;;;;;;;;5084379;28;20037;-75
2022/10/27 03:49:58;;;;;;;12.02;3.75;;;;;;;;;;5056945;28;20049;-74
2022/10/27 03:52:43;;;;;;;5.60;3.17;;;;;;;;;;5070618;28;20417;-76
2022/10/27 03:55:25;;;;;;;13.27;3.77;;;;;;;;;;5076703;28;20041;-74
2022/10/27 03:58:02;;;;;;;10.43;3.85;;;;;;;;;;5080992;28;20068;-74
2022/10/27 04:00:35;;;;;;;15.45;4.30;;;;;;;;;;5072636;28;20072;-77
2022/10/27 04:03:30;;;;;;;9.27;3.13;;;;;;;;;;5060795;28;20791;-76
2022/10/27 04:06:08;;;;;;;6.93;2.95;;;;;;;;;;5068036;28;20056;-75
2022/10/27 04:09:06;;;;;;;12.35;3.85;;;;;;;;;;5072814;28;20065;-77
2022/10/27 04:11:37;;;;;;;6.22;3.25;;;;;;;;;;5070426;28;21017;-77
2022/10/27 04:14:23;;;;;;;7.25;3.42;;;;;;;;;;5057326;28;20056;-75
2022/10/27 04:17:06;;;;;;;12.25;3.78;;;;;;;;;;5069301;28;21033;-75
2022/10/27 04:20:16;;;;;;;5.35;3.20;;;;;;;;;;5074703;28;20037;-75
2022/10/27 04:23:02;;;;;;;10.18;3.15;;;;;;;;;;4985522;28;20142;-78
2022/10/27 04:25:43;;;;;;;16.02;3.88;;;;;;;;;;4973904;28;20058;-74
2022/10/27 04:28:18;;;;;;;8.18;3.67;;;;;;;;;;4990675;28;20506;-74
2022/10/27 04:31:04;;;;;;;9.63;3.17;;;;;;;;;;4974696;28;20111;-75
2022/10/27 04:33:45;;;;;;;8.90;3.78;;;;;;;;;;4986218;28;20067;-75
2022/10/27 04:36:37;;;;;;;9.38;3.55;;;;;;;;;;4991263;28;20053;-76
2022/10/27 04:39:12;;;;;;;11.75;3.38;;;;;;;;;;4973099;28;20054;-75
2022/10/27 04:41:40;;;;;;;9.35;3.33;;;;;;;;;;4992906;28;20165;-76
2022/10/27 04:44:08;;;;;;;10.98;3.90;;;;;;;;;;5073008;28;20105;-77
2022/10/27 04:46:44;;;;;;;11.35;3.70;;;;;;;;;;5078159;28;20076;-77
2022/10/27 04:49:29;;;;;;;13.80;3.83;;;;;;;;;;5073514;28;20100;-75
2022/10/27 04:52:23;;;;;;;11.90;3.20;;;;;;;;;;5058957;28;20033;-75
2022/10/27 04:55:35;;;;;;;7.80;2.92;;;;;;;;;;5012468;28;20090;-75
2022/10/27 04:58:26;;;;;;;;;;;;;;;;;;;;;
2022/10/27 05:01:13;;;;;;;7.65;3.70;;;;;;;;;;5019009;28;20209;-75
2022/10/27 05:04:00;;;;;;;7.88;3.38;;;;;;;;;;5009828;28;20153;-75
2022/10/27 05:06:27;;;;;;;8.93;3.40;;;;;;;;;;5015488;28;20149;-76
2022/10/27 05:09:16;;;;;;;10.38;3.17;;;;;;;;;;4994175;28;20160;-74
2022/10/27 05:11:59;;;;;;;7.60;3.15;;;;;;;;;;4996058;28;20058;-75
2022/10/27 05:14:30;;;;;;;8.07;3.08;;;;;;;;;;5010642;28;20103;-76
2022/10/27 05:17:13;;;;;;;17.33;3.80;;;;;;;;;;4999833;28;20046;-74
2022/10/27 05:20:22;;;;;;;5.22;2.70;;;;;;;;;;5019118;28;20100;-77
2022/10/27 05:23:18;;;;;;;9.65;3.33;;;;;;;;;;5011443;28;20050;-75
2022/10/27 05:25:50;;;;;;;6.07;3.17;;;;;;;;;;5038459;28;20045;-76
2022/10/27 05:29:06;;;;;;;10.23;3.30;;;;;;;;;;4998272;28;20034;-77
2022/10/27 05:31:51;;;;;;;5.72;2.80;;;;;;;;;;4987491;28;20143;-76
2022/10/27 05:34:44;;;;;;;;;;;;;;;;;;;;;
2022/10/27 05:37:15;;;;;;;10.48;3.67;;;;;;;;;;4999149;28;20030;-77
2022/10/27 05:40:05;;;;;;;12.77;3.65;;;;;;;;;;4911438;28;20070;-78
2022/10/27 05:43:04;;;;;;;11.48;3.70;;;;;;;;;;5002063;28;20856;-74
2022/10/27 05:46:07;;;;;;;15.75;3.85;;;;;;;;;;4993699;28;20047;-76
2022/10/27 05:48:41;;;;;;;14.07;3.90;;;;;;;;;;4999086;28;20111;-75
2022/10/27 05:54:32;;;;;;;17.88;3.78;;;;;;;;;;4992795;28;20046;-77
2022/10/27 05:57:12;;;;;;;11.25;3.63;;;;;;;;;;4982612;28;20055;-79
2022/10/27 05:59:53;;;;;;;9.13;3.65;;;;;;;;;;4997549;28;20042;-78
2022/10/27 06:02:44;;;;;;;12.23;3.58;;;;;;;;;;4997662;28;20043;-77
2022/10/27 06:05:11;;;;;;;6.85;3.67;;;;;;;;;;4995216;28;20070;-78
2022/10/27 06:07:41;;;;;;;8.05;4.25;;;;;;;;;;5012024;28;20514;-79
2022/10/27 06:10:13;;;;;;;10.65;3.88;;;;;;;;;;5023865;28;20058;-78
2022/10/27 06:12:43;;;;;;;8.65;4.03;;;;;;;;;;5025174;28;20497;-79
2022/10/27 06:15:27;;;;;;;10.25;4.22;;;;;;;;;;5021492;28;20042;-78
2022/10/27 06:17:57;;;;;;;7.10;3.45;;;;;;;;;;5022287;28;20038;-78
2022/10/27 06:20:32;;;;;;;12.23;3.97;;;;;;;;;;5022211;28;20118;-79
2022/10/27 06:23:14;;;;;;;8.23;3.88;;;;;;;;;;5018598;28;20066;-78
2022/10/27 06:25:58;;;;;;;10.80;3.60;;;;;;;;;;5018683;28;20050;-78
2022/10/27 06:28:28;;;;;;;16.13;4.70;;;;;;;;;;5013949;28;20046;-79
2022/10/27 06:30:55;;;;;;;10.30;4.03;;;;;;;;;;5012675;28;20095;-79
2022/10/27 06:33:30;;;;;;;12.32;3.85;;;;;;;;;;5015874;28;20055;-77
2022/10/27 06:36:01;;;;;;;10.35;3.88;;;;;;;;;;5021084;28;20070;-79
2022/10/27 06:38:53;;;;;;;9.50;4.43;;;;;;;;;;5015839;28;20043;-78
2022/10/27 06:41:20;;;;;;;8.07;3.78;;;;;;;;;;5019173;28;20089;-78
2022/10/27 06:43:59;;;;;;;9.05;3.60;;;;;;;;;;5033880;28;20050;-76
2022/10/27 06:46:41;;;;;;;11.73;4.68;;;;;;;;;;5016896;28;20063;-78
2022/10/27 06:49:10;;;;;;;10.23;4.15;;;;;;;;;;5024268;28;20046;-78
2022/10/27 06:51:42;;;;;;;8.10;3.90;;;;;;;;;;5019439;28;20101;-78
2022/10/27 06:54:09;;;;;;;7.20;4.20;;;;;;;;;;5023602;28;20050;-79
2022/10/27 06:56:36;;;;;;;7.03;3.95;;;;;;;;;;5019281;28;20061;-79
2022/10/27 06:59:14;;;;;;;13.07;3.67;;;;;;;;;;5025502;28;20035;-78
2022/10/27 07:02:11;;;;;;;7.28;3.85;;;;;;;;;;5022967;28;20042;-78
2022/10/27 07:04:38;;;;;;;11.65;3.60;;;;;;;;;;5018529;28;20046;-78
2022/10/27 07:07:20;;;;;;;9.43;4.22;;;;;;;;;;5025061;28;20038;-78
2022/10/27 07:10:00;;;;;;;6.50;3.28;;;;;;;;;;5025956;28;20054;-78
2022/10/27 07:12:28;;;;;;;11.73;3.38;;;;;;;;;;5027321;28;20835;-78
2022/10/27 07:14:58;;;;;;;8.98;3.97;;;;;;;;;;5028539;28;20092;-78
2022/10/27 07:17:46;;;;;;;8.00;3.22;;;;;;;;;;5026348;28;20050;-78
2022/10/27 07:20:12;;;;;;;7.82;3.40;;;;;;;;;;5016899;28;20042;-80
2022/10/27 07:22:44;;;;;;;9.73;3.22;;;;;;;;;;5024014;28;20149;-78
2022/10/27 07:25:14;;;;;;;9.45;3.47;;;;;;;;;;5024555;28;20074;-79
2022/10/27 07:27:53;;;;;;;8.38;3.38;;;;;;;;;;5019162;28;20055;-78
2022/10/27 07:30:22;;;;;;;6.88;3.30;;;;;;;;;;5018279;28;20082;-79
2022/10/27 07:32:49;;;;;;;6.20;3.15;;;;;;;;;;5030372;28;20086;-78
2022/10/27 07:35:32;;;;;;;6.72;3.38;;;;;;;;;;5020606;28;20049;-79
2022/10/27 07:37:59;;;;;;;7.47;3.17;;;;;;;;;;5015878;28;20033;-78
2022/10/27 07:40:27;;;;;;;13.55;3.05;;;;;;;;;;5023076;28;20073;-78
2022/10/27 07:42:59;;;;;;;7.28;3.17;;;;;;;;;;5027306;28;20077;-78
2022/10/27 07:45:34;;;;;;;6.80;3.15;;;;;;;;;;5027636;28;20065;-79
2022/10/27 07:48:01;;;;;;;9.00;3.45;;;;;;;;;;5027010;28;20587;-80
2022/10/27 07:50:31;;;;;;;5.63;2.60;;;;;;;;;;5025913;28;20130;-80
2022/10/27 07:53:01;;;;;;;8.85;3.13;;;;;;;;;;5019705;28;20042;-77
2022/10/27 07:55:28;;;;;;;6.82;2.63;;;;;;;;;;5024330;28;20104;-77
2022/10/27 07:57:59;;;;;;;4.95;2.35;;;;;;;;;;5024716;28;20082;-77
2022/10/27 08:00:44;;;;;;;6.50;2.95;;;;;;;;;;5020038;28;20063;-77
2022/10/27 08:03:22;;;;;;;5.15;2.55;;;;;;;;;;5022507;28;20517;-77
2022/10/27 08:05:49;;;;;;;8.48;2.42;;;;;;;;;;5021786;28;20054;-76
2022/10/27 08:08:17;;;;;;;7.05;2.80;;;;;;;;;;5021947;28;20082;-78
2022/10/27 08:10:47;;;;;;;7.60;2.78;;;;;;;;;;5015433;28;20042;-78
2022/10/27 08:13:45;;;;;;;9.40;2.85;;;;;;;;;;5015284;28;20108;-77
2022/10/27 08:16:15;;;;;;;3.58;2.00;;;;;;;;;;5016901;28;20046;-77
2022/10/27 08:18:45;;;;;;;7.13;2.85;;;;;;;;;;5028154;28;20050;-77
2022/10/27 08:21:12;;;;;;;7.72;2.75;;;;;;;;;;5025445;28;20082;-77
2022/10/27 08:23:51;;;;;;;5.43;2.05;;;;;;;;;;5022621;28;20046;-77
2022/10/27 08:26:18;;;;;;;4.85;2.28;;;;;;;;;;5021782;28;20058;-77
2022/10/27 08:28:47;;;;;;;7.38;2.33;;;;;;;;;;5019034;28;20097;-77
2022/10/27 08:31:14;;;;;;;5.82;2.10;;;;;;;;;;5015109;28;20109;-76
2022/10/27 08:33:44;;;;;;;5.95;2.30;;;;;;;;;;5018809;28;20033;-77
2022/10/27 08:36:14;;;;;;;3.53;1.90;;;;;;;;;;5019346;28;20019;-77
2022/10/27 08:38:41;;;;;;;4.95;1.88;;;;;;;;;;5020655;28;20043;-77
2022/10/27 08:41:10;;;;;;;5.00;2.13;;;;;;;;;;5019020;28;20038;-77
2022/10/27 08:44:00;;;;;;;4.65;1.88;;;;;;;;;;5024547;28;20046;-77
2022/10/27 08:46:39;;;;;;;7.55;2.10;;;;;;;;;;5018589;28;20103;-78
2022/10/27 08:49:09;;;;;;;10.88;1.73;;;;;;;;;;5026532;28;20078;-76
2022/10/27 08:51:56;;;;;;;7.50;2.15;;;;;;;;;;5021932;28;20119;-77
2022/10/27 08:54:29;;;;;;;6.77;2.30;;;;;;;;;;5015973;28;20106;-76
2022/10/27 08:57:04;;;;;;;3.63;1.80;;;;;;;;;;5022278;28;20666;-78
2022/10/27 08:59:35;;;;;;;2.40;1.50;;;;;;;;;;5015618;28;20079;-76
2022/10/27 09:02:16;;;;;;;11.05;2.17;;;;;;;;;;5024307;28;20129;-79
2022/10/27 09:05:07;;;;;;;7.85;2.00;;;;;;;;;;5022088;28;20122;-78
2022/10/27 09:07:34;;;;;;;4.32;1.67;;;;;;;;;;5020119;28;20297;-80
2022/10/27 09:10:18;;;;;;;4.13;1.75;;;;;;;;;;5017248;28;20105;-77
2022/10/27 09:13:27;;;;;;;6.47;1.73;;;;;;;;;;5021911;28;20046;-76
2022/10/27 09:16:01;;;;;;;3.38;1.50;;;;;;;;;;5017867;28;20042;-75
2022/10/27 09:18:42;;;;;;;1.98;1.30;;;;;;;;;;5018012;28;20094;-77
2022/10/27 09:21:31;;;;;;;9.10;1.75;;;;;;;;;;5017285;28;20129;-75
2022/10/27 09:24:30;;;;;;;2.97;1.30;;;;;;;;;;5017957;28;20047;-78
2022/10/27 09:27:01;;;;;;;3.85;1.42;;;;;;;;;;4953315;28;20055;-76
2022/10/27 09:30:00;;;;;;;5.20;1.70;;;;;;;;;;5020430;28;20075;-76
2022/10/27 09:32:41;;;;;;;3.40;1.50;;;;;;;;;;5018028;28;20053;-78
2022/10/27 09:35:19;;;;;;;3.63;1.60;;;;;;;;;;5019954;28;20039;-75
2022/10/27 09:38:09;;;;;;;3.22;1.80;;;;;;;;;;5019087;28;20225;-77
2022/10/27 09:40:53;;;;;;;2.67;1.52;;;;;;;;;;5008686;28;20054;-77
2022/10/27 09:43:23;;;;;;;4.43;1.73;;;;;;;;;;5019255;28;20892;-76
2022/10/27 09:46:28;;;;;;;2.65;1.52;;;;;;;;;;5013955;28;20065;-76
2022/10/27 09:49:03;;;;;;;7.85;2.28;;;;;;;;;;5014227;28;20050;-75
2022/10/27 09:51:43;;;;;;;2.92;1.80;;;;;;;;;;4998950;28;20085;-76
2022/10/27 09:54:27;;;;;;;5.93;1.73;;;;;;;;;;5021070;28;20077;-76
2022/10/27 09:56:56;;;;;;;4.22;1.95;;;;;;;;;;5021200;28;20042;-75
2022/10/27 09:59:23;;;;;;;4.07;1.67;;;;;;;;;;5019557;28;20097;-75
2022/10/27 10:01:56;;;;;;;4.90;1.90;;;;;;;;;;5018161;28;20050;-75
2022/10/27 10:04:32;;;;;;;5.72;1.63;;;;;;;;;;5022051;28;20070;-76
2022/10/27 10:07:33;;;;;;;5.83;1.83;;;;;;;;;;5008795;28;20088;-77
2022/10/27 10:10:04;;;;;;;9.68;1.90;;;;;;;;;;5014732;28;20046;-74
2022/10/27 10:12:52;;;;;;;7.00;1.50;;;;;;;;;;5023503;28;20061;-76
2022/10/27 10:15:32;;;;;;;5.22;1.73;;;;;;;;;;5015509;28;20105;-75
2022/10/27 10:18:28;;;;;;;6.90;2.13;;;;;;;;;;5011961;28;20058;-76
2022/10/27 10:21:03;;;;;;;7.78;1.80;;;;;;;;;;5020899;28;20059;-74
2022/10/27 10:23:36;;;;;;;3.00;1.88;;;;;;;;;;5014597;28;20046;-75
2022/10/27 10:26:17;;;;;;;4.07;1.90;;;;;;;;;;5014132;28;20049;-75
2022/10/27 10:28:53;;;;;;;4.45;1.65;;;;;;;;;;5022541;28;20042;-75
2022/10/27 10:31:25;;;;;;;5.50;1.77;;;;;;;;;;5002926;28;20027;-77
2022/10/27 10:34:05;;;;;;;4.10;1.85;;;;;;;;;;5019806;28;20812;-74
2022/10/27 10:36:40;;;;;;;3.33;1.70;;;;;;;;;;5016119;28;20042;-76
2022/10/27 10:39:26;;;;;;;2.60;1.55;;;;;;;;;;5012103;28;20062;-75
2022/10/27 10:42:09;;;;;;;4.28;2.00;;;;;;;;;;5017294;28;20041;-76
2022/10/27 10:44:39;;;;;;;3.53;1.88;;;;;;;;;;5018738;28;20042;-74
2022/10/27 10:47:10;;;;;;;5.65;1.83;;;;;;;;;;5018123;28;20078;-75
2022/10/27 10:49:44;;;;;;;5.70;1.77;;;;;;;;;;5013172;28;20047;-76
2022/10/27 10:52:43;;;;;;;7.47;1.80;;;;;;;;;;5017391;28;20043;-75
2022/10/27 10:55:26;;;;;;;7.75;2.00;;;;;;;;;;5017423;28;20042;-75
2022/10/27 10:57:57;;;;;;;4.77;1.73;;;;;;;;;;5026801;28;20046;-75
2022/10/27 11:00:28;;;;;;;4.03;1.73;;;;;;;;;;5023752;28;20375;-75
2022/10/27 11:03:01;;;;;;;4.53;1.80;;;;;;;;;;5022336;28;20061;-75
2022/10/27 11:05:31;;;;;;;6.53;1.80;;;;;;;;;;5021123;28;20050;-75
2022/10/27 11:08:02;;;;;;;7.63;2.08;;;;;;;;;;5018900;28;20718;-75
2022/10/27 11:10:32;;;;;;;5.25;1.60;;;;;;;;;;5023697;28;20054;-76
2022/10/27 11:12:59;;;;;;;4.57;1.80;;;;;;;;;;5026005;28;20059;-76
2022/10/27 11:15:47;;;;;;;5.43;1.85;;;;;;;;;;5020510;28;20046;-75
2022/10/27 11:18:23;;;;;;;1.95;1.25;;;;;;;;;;5015826;28;20191;-75
2022/10/27 11:20:56;;;;;;;4.15;1.90;;;;;;;;;;5025867;28;20051;-74
2022/10/27 11:23:27;;;;;;;5.20;1.60;;;;;;;;;;5022363;28;20061;-77
2022/10/27 11:26:04;;;;;;;3.58;1.48;;;;;;;;;;5020773;28;21085;-75
2022/10/27 11:28:34;;;;;;;4.35;1.70;;;;;;;;;;5023564;28;20047;-74
2022/10/27 11:31:17;;;;;;;6.80;1.77;;;;;;;;;;5034509;28;20957;-75
2022/10/27 11:34:02;;;;;;;4.97;1.58;;;;;;;;;;5025289;28;20043;-75
2022/10/27 11:36:54;;;;;;;3.95;1.75;;;;;;;;;;5019883;28;20046;-76
2022/10/27 11:39:27;;;;;;;4.30;1.80;;;;;;;;;;5018793;28;20729;-75
2022/10/27 11:42:14;;;;;;;4.88;1.75;;;;;;;;;;5023705;28;20038;-74
2022/10/27 11:44:55;;;;;;;3.28;1.30;;;;;;;;;;4997554;28;20038;-75
2022/10/27 11:47:33;;;;;;;8.07;1.80;;;;;;;;;;5014354;28;20102;-74
2022/10/27 11:50:26;;;;;;;6.18;1.70;;;;;;;;;;5016715;28;20046;-75
2022/10/27 11:52:57;;;;;;;5.50;1.70;;;;;;;;;;5018111;28;20568;-76
2022/10/27 11:55:27;;;;;;;7.35;2.08;;;;;;;;;;5031244;28;20060;-75
2022/10/27 11:58:23;;;;;;;5.20;1.80;;;;;;;;;;5016887;28;20896;-74
2022/10/27 12:01:15;;;;;;;7.60;1.77;;;;;;;;;;5019355;28;20808;-75
2022/10/27 12:03:51;;;;;;;5.43;1.80;;;;;;;;;;5017422;28;20169;-75
2022/10/27 12:06:31;;;;;;;10.98;1.88;;;;;;;;;;5021645;28;20047;-76
2022/10/27 12:09:10;;;;;;;10.02;1.73;;;;;;;;;;5018904;28;20057;-75
2022/10/27 12:12:01;;;;;;;4.80;1.60;;;;;;;;;;5031441;28;20054;-74
2022/10/27 12:14:38;;;;;;;6.85;1.63;;;;;;;;;;5020291;28;20038;-75
2022/10/27 12:17:30;;;;;;;4.88;1.60;;;;;;;;;;5021606;28;20042;-75
2022/10/27 12:20:03;;;;;;;4.32;1.38;;;;;;;;;;4988327;28;20050;-74
2022/10/27 12:22:38;;;;;;;5.65;1.90;;;;;;;;;;5022491;28;20123;-76
2022/10/27 12:28:31;;;;;;;3.80;1.52;;;;;;;;;;4989258;28;20066;-75
2022/10/27 12:31:00;;;;;;;6.45;1.65;;;;;;;;;;4997904;28;20089;-75
2022/10/27 12:33:38;;;;;;;5.65;1.67;;;;;;;;;;4994701;28;20054;-76
2022/10/27 12:36:24;;;;;;;7.07;1.65;;;;;;;;;;4992029;28;20867;-75
2022/10/27 12:39:13;;;;;;;4.47;1.55;;;;;;;;;;4992129;28;20047;-75
2022/10/27 12:42:02;;;;;;;3.47;1.60;;;;;;;;;;4984000;28;20043;-76
2022/10/27 12:44:39;;;;;;;8.13;1.90;;;;;;;;;;4982002;28;20078;-76
2022/10/27 12:47:18;;;;;;;6.25;1.75;;;;;;;;;;4988159;28;20115;-75
2022/10/27 12:49:48;;;;;;;6.32;1.85;;;;;;;;;;4984625;28;20024;-75
2022/10/27 12:52:47;;;;;;;5.45;1.77;;;;;;;;;;4989551;28;20095;-75
2022/10/27 12:55:33;;;;;;;5.72;2.08;;;;;;;;;;4994279;28;20167;-74
2022/10/27 12:58:14;;;;;;;5.28;1.60;;;;;;;;;;4987178;28;20067;-74
2022/10/27 13:01:23;;;;;;;3.30;1.67;;;;;;;;;;4982768;28;20087;-76
2022/10/27 13:04:07;;;;;;;2.90;1.65;;;;;;;;;;5016293;28;20046;-73
2022/10/27 13:06:47;;;;;;;5.82;1.70;;;;;;;;;;5020088;28;20097;-75
2022/10/27 13:09:14;;;;;;;7.53;2.20;;;;;;;;;;5018509;28;20058;-75
2022/10/27 13:12:01;;;;;;;3.67;1.65;;;;;;;;;;5020024;28;20042;-74
2022/10/27 13:14:27;;;;;;;7.63;1.98;;;;;;;;;;5016624;28;20081;-74
2022/10/27 13:16:54;;;;;;;6.05;1.85;;;;;;;;;;5022500;28;20792;-75
2022/10/27 13:19:48;;;;;;;4.78;1.73;;;;;;;;;;5016581;28;20045;-76
2022/10/27 13:22:22;;;;;;;5.90;1.83;;;;;;;;;;5017937;28;20064;-74
2022/10/27 13:24:59;;;;;;;5.60;2.10;;;;;;;;;;5021141;28;20082;-74
2022/10/27 13:27:37;;;;;;;10.50;1.58;;;;;;;;;;5012327;28;20066;-75
2022/10/27 13:30:07;;;;;;;8.38;1.95;;;;;;;;;;5019033;28;20105;-74
2022/10/27 13:32:38;;;;;;;4.15;1.58;;;;;;;;;;5024285;28;20947;-75
2022/10/27 13:35:05;;;;;;;3.05;1.48;;;;;;;;;;5019245;28;20643;-74
2022/10/27 13:37:37;;;;;;;9.48;1.80;;;;;;;;;;5017611;28;20110;-75
2022/10/27 13:40:39;;;;;;;4.93;1.83;;;;;;;;;;5019873;28;20030;-74
2022/10/27 13:43:42;;;;;;;8.05;1.58;;;;;;;;;;5019830;28;20054;-74
2022/10/27 13:46:10;;;;;;;5.87;1.80;;;;;;;;;;5021551;28;20923;-75
2022/10/27 13:48:42;;;;;;;6.30;1.58;;;;;;;;;;5011700;28;20262;-74
2022/10/27 13:51:28;;;;;;;14.43;1.80;;;;;;;;;;5016423;28;20042;-73
2022/10/27 13:54:44;;;;;;;4.72;1.40;;;;;;;;;;5018653;28;20065;-75
2022/10/27 13:57:30;;;;;;;3.63;1.80;;;;;;;;;;5015415;28;20050;-75
2022/10/27 14:00:03;;;;;;;4.43;1.75;;;;;;;;;;5012943;28;20165;-74
2022/10/27 14:02:44;;;;;;;8.65;1.73;;;;;;;;;;5018818;28;20046;-75
2022/10/27 14:05:41;;;;;;;6.32;1.70;;;;;;;;;;5020394;28;20065;-75
2022/10/27 14:08:23;;;;;;;5.20;1.98;;;;;;;;;;5019238;28;20047;-75
2022/10/27 14:10:51;;;;;;;7.20;2.00;;;;;;;;;;5008457;28;20038;-73
2022/10/27 14:13:23;;;;;;;2.92;1.52;;;;;;;;;;5023222;28;20046;-74
2022/10/27 14:15:55;;;;;;;8.73;1.88;;;;;;;;;;5020248;28;20081;-75
2022/10/27 14:18:33;;;;;;;7.05;1.85;;;;;;;;;;5019586;28;20105;-73
2022/10/27 14:21:33;;;;;;;3.15;1.80;;;;;;;;;;5012618;28;20624;-75
2022/10/27 14:24:23;;;;;;;6.30;1.65;;;;;;;;;;5025328;28;20046;-74
2022/10/27 14:26:57;;;;;;;3.17;1.75;;;;;;;;;;5022562;28;20058;-76
2022/10/27 14:29:32;;;;;;;4.20;1.55;;;;;;;;;;5026992;28;20069;-76
2022/10/27 14:32:12;;;;;;;9.52;2.10;;;;;;;;;;5020919;28;20102;-75
2022/10/27 14:34:43;;;;;;;5.00;1.75;;;;;;;;;;5020271;28;20066;-74
2022/10/27 14:37:17;;;;;;;10.65;1.80;;;;;;;;;;5018268;28;20055;-73
2022/10/27 14:39:45;;;;;;;11.32;2.05;;;;;;;;;;5022923;28;20043;-75
2022/10/27 14:42:23;;;;;;;7.15;1.83;;;;;;;;;;5022527;28;20050;-75
2022/10/27 14:45:06;;;;;;;6.82;1.85;;;;;;;;;;5016871;28;20578;-74
2022/10/27 14:47:33;;;;;;;5.15;1.80;;;;;;;;;;5014893;28;20038;-74
2022/10/27 14:50:00;;;;;;;13.68;1.95;;;;;;;;;;5021836;28;20050;-76
2022/10/27 14:52:42;;;;;;;11.15;2.22;;;;;;;;;;5025503;28;20042;-75
2022/10/27 14:55:42;;;;;;;6.10;1.88;;;;;;;;;;5027082;28;20053;-75
2022/10/27 14:58:21;;;;;;;5.07;2.10;;;;;;;;;;5021622;28;20161;-75
2022/10/27 15:00:51;;;;;;;6.10;1.90;;;;;;;;;;5020180;28;20643;-74
2022/10/27 15:03:39;;;;;;;5.63;1.85;;;;;;;;;;5013958;28;21166;-76
2022/10/27 15:06:18;;;;;;;8.32;2.00;;;;;;;;;;5020866;28;20039;-74
2022/10/27 15:08:48;;;;;;;9.20;2.08;;;;;;;;;;5015935;28;20058;-74
2022/10/27 15:11:27;;;;;;;5.30;2.10;;;;;;;;;;5017507;28;20072;-75
2022/10/27 15:13:55;;;;;;;5.65;2.28;;;;;;;;;;5018764;28;21046;-76
2022/10/27 15:16:24;;;;;;;9.32;2.35;;;;;;;;;;5013698;28;20045;-74
2022/10/27 15:18:52;;;;;;;7.20;2.28;;;;;;;;;;5015630;28;20839;-75
2022/10/27 15:21:20;;;;;;;9.43;2.53;;;;;;;;;;5014288;28;20050;-75
2022/10/27 15:23:53;;;;;;;5.25;2.35;;;;;;;;;;5015466;28;20054;-76
2022/10/27 15:26:24;;;;;;;4.40;2.13;;;;;;;;;;5017517;28;20180;-73
2022/10/27 15:28:55;;;;;;;9.25;2.65;;;;;;;;;;5017932;28;20035;-76
2022/10/27 15:31:29;;;;;;;6.32;2.03;;;;;;;;;;5016740;28;20053;-75
2022/10/27 15:33:59;;;;;;;6.18;2.50;;;;;;;;;;5021473;28;20077;-74
2022/10/27 15:36:27;;;;;;;3.95;2.10;;;;;;;;;;5025496;28;20074;-75
2022/10/27 15:38:54;;;;;;;4.53;2.40;;;;;;;;;;5030420;28;20034;-76
2022/10/27 15:41:23;;;;;;;9.10;2.25;;;;;;;;;;5032080;28;20101;-75
2022/10/27 15:43:51;;;;;;;8.82;2.80;;;;;;;;;;5025434;28;20800;-75
2022/10/27 15:46:24;;;;;;;7.32;2.60;;;;;;;;;;5028185;28;20050;-75
2022/10/27 15:49:16;;;;;;;3.97;2.22;;;;;;;;;;5019685;28;20058;-74
2022/10/27 15:51:48;;;;;;;7.35;2.28;;;;;;;;;;5019484;28;20042;-76
2022/10/27 15:54:22;;;;;;;12.13;2.75;;;;;;;;;;5016397;28;20055;-74
2022/10/27 15:56:53;;;;;;;8.93;2.50;;;;;;;;;;5015692;28;20043;-75
2022/10/27 15:59:26;;;;;;;6.15;2.30;;;;;;;;;;5025012;28;20039;-75
2022/10/27 16:01:55;;;;;;;6.07;2.22;;;;;;;;;;5026202;28;20054;-75
2022/10/27 16:04:28;;;;;;;9.23;2.55;;;;;;;;;;5043689;28;20058;-76
2022/10/27 16:07:11;;;;;;;7.20;2.40;;;;;;;;;;5026333;28;20043;-75
2022/10/27 16:09:43;;;;;;;9.70;2.60;;;;;;;;;;5020428;28;20073;-75
2022/10/27 16:12:20;;;;;;;8.10;2.72;;;;;;;;;;5023949;28;20074;-75
2022/10/27 16:14:52;;;;;;;11.00;2.65;;;;;;;;;;5036345;28;20122;-76
2022/10/27 16:17:23;;;;;;;12.13;2.67;;;;;;;;;;5028272;28;20938;-74